sensor_id;sensor_type;location;lat;lon;timestamp;temperature;humidity
27376;DHT22;14844;51.302;6.354;2023-07-31T00:02:19;16.10;99.90
27376;DHT22;14844;51.302;6.354;2023-07-31T00:04:44;16.10;99.90
27376;DHT22;14844;51.302;6.354;2023-07-31T00:07:10;16.10;99.90
27376;DHT22;14844;51.302;6.354;2023-07-31T00:09:36;16.20;99.90
27376;DHT22;14844;51.302;6.354;2023-07-31T00:12:01;16.20;99.90
27376;DHT22;14844;51.302;6.354;2023-07-31T00:14:27;16.10;99.90
27376;DHT22;14844;51.302;6.354;2023-07-31T00:16:52;16.20;99.90
27376;DHT22;14844;51.302;6.354;2023-07-31T00:19:18;16.20;99.90
27376;DHT22;14844;51.302;6.354;2023-07-31T00:21:44;16.20;99.90
27376;DHT22;14844;51.302;6.354;2023-07-31T00:24:09;16.20;99.90
27376;DHT22;14844;51.302;6.354;2023-07-31T00:26:34;16.20;99.90
27376;DHT22;14844;51.302;6.354;2023-07-31T00:29:00;16.20;99.90
27376;DHT22;14844;51.302;6.354;2023-07-31T00:31:26;16.20;99.90
27376;DHT22;14844;51.302;6.354;2023-07-31T00:33:51;16.20;99.90
27376;DHT22;14844;51.302;6.354;2023-07-31T00:36:17;16.20;99.90
27376;DHT22;14844;51.302;6.354;2023-07-31T00:38:43;16.20;99.90
27376;DHT22;14844;51.302;6.354;2023-07-31T00:41:08;16.30;99.90
27376;DHT22;14844;51.302;6.354;2023-07-31T00:43:34;16.30;99.90
27376;DHT22;14844;51.302;6.354;2023-07-31T00:45:59;16.20;99.90
27376;DHT22;14844;51.302;6.354;2023-07-31T00:48:25;16.20;99.90
27376;DHT22;14844;51.302;6.354;2023-07-31T00:50:50;16.20;99.90
27376;DHT22;14844;51.302;6.354;2023-07-31T00:53:16;16.20;99.90
27376;DHT22;14844;51.302;6.354;2023-07-31T00:55:42;16.20;99.90
27376;DHT22;14844;51.302;6.354;2023-07-31T00:58:07;16.20;99.90
27376;DHT22;14844;51.302;6.354;2023-07-31T01:00:33;16.30;99.90
27376;DHT22;14844;51.302;6.354;2023-07-31T01:02:58;16.20;99.90
27376;DHT22;14844;51.302;6.354;2023-07-31T01:05:36;16.20;99.90
27376;DHT22;14844;51.302;6.354;2023-07-31T01:08:06;16.20;99.90
27376;DHT22;14844;51.302;6.354;2023-07-31T01:10:37;16.30;99.90
27376;DHT22;14844;51.302;6.354;2023-07-31T01:13:05;16.30;99.90
27376;DHT22;14844;51.302;6.354;2023-07-31T01:15:31;16.30;99.90
27376;DHT22;14844;51.302;6.354;2023-07-31T01:17:56;16.30;99.90
27376;DHT22;14844;51.302;6.354;2023-07-31T01:20:23;16.30;99.90
27376;DHT22;14844;51.302;6.354;2023-07-31T01:25:46;16.30;99.90
27376;DHT22;14844;51.302;6.354;2023-07-31T01:28:13;16.30;99.90
27376;DHT22;14844;51.302;6.354;2023-07-31T01:30:43;16.30;99.90
27376;DHT22;14844;51.302;6.354;2023-07-31T01:33:10;16.30;99.90
27376;DHT22;14844;51.302;6.354;2023-07-31T01:35:35;16.30;99.90
27376;DHT22;14844;51.302;6.354;2023-07-31T01:38:01;16.40;99.90
27376;DHT22;14844;51.302;6.354;2023-07-31T01:40:27;16.40;99.90
27376;DHT22;14844;51.302;6.354;2023-07-31T01:42:52;16.40;99.90
27376;DHT22;14844;51.302;6.354;2023-07-31T01:45:17;16.40;99.90
27376;DHT22;14844;51.302;6.354;2023-07-31T01:47:43;16.40;99.90
27376;DHT22;14844;51.302;6.354;2023-07-31T01:50:09;16.40;99.90
27376;DHT22;14844;51.302;6.354;2023-07-31T01:52:34;16.40;99.90
27376;DHT22;14844;51.302;6.354;2023-07-31T01:55:00;16.40;99.90
27376;DHT22;14844;51.302;6.354;2023-07-31T01:57:25;16.40;99.90
27376;DHT22;14844;51.302;6.354;2023-07-31T01:59:51;16.40;99.90
27376;DHT22;14844;51.302;6.354;2023-07-31T02:02:18;16.50;99.90
27376;DHT22;14844;51.302;6.354;2023-07-31T02:04:44;16.50;99.90
27376;DHT22;14844;51.302;6.354;2023-07-31T02:07:09;16.40;99.90
27376;DHT22;14844;51.302;6.354;2023-07-31T02:09:35;16.40;99.90
27376;DHT22;14844;51.302;6.354;2023-07-31T02:12:00;16.40;99.90
27376;DHT22;14844;51.302;6.354;2023-07-31T02:14:26;16.40;99.90
27376;DHT22;14844;51.302;6.354;2023-07-31T02:16:51;16.40;99.90
27376;DHT22;14844;51.302;6.354;2023-07-31T02:19:17;16.50;99.90
27376;DHT22;14844;51.302;6.354;2023-07-31T02:21:42;16.50;99.90
27376;DHT22;14844;51.302;6.354;2023-07-31T02:24:08;16.50;99.90
27376;DHT22;14844;51.302;6.354;2023-07-31T02:26:33;16.50;99.90
27376;DHT22;14844;51.302;6.354;2023-07-31T02:28:58;16.50;99.90
27376;DHT22;14844;51.302;6.354;2023-07-31T02:31:24;16.50;99.90
27376;DHT22;14844;51.302;6.354;2023-07-31T02:33:49;16.50;99.90
27376;DHT22;14844;51.302;6.354;2023-07-31T02:36:15;16.50;99.90
27376;DHT22;14844;51.302;6.354;2023-07-31T02:38:40;16.50;99.90
27376;DHT22;14844;51.302;6.354;2023-07-31T02:41:06;16.50;99.90
27376;DHT22;14844;51.302;6.354;2023-07-31T02:43:31;16.50;99.90
27376;DHT22;14844;51.302;6.354;2023-07-31T02:45:56;16.50;99.90
27376;DHT22;14844;51.302;6.354;2023-07-31T02:48:22;16.50;99.90
27376;DHT22;14844;51.302;6.354;2023-07-31T02:50:47;16.50;99.90
27376;DHT22;14844;51.302;6.354;2023-07-31T02:53:13;16.50;99.90
27376;DHT22;14844;51.302;6.354;2023-07-31T02:55:38;16.60;99.90
27376;DHT22;14844;51.302;6.354;2023-07-31T02:58:04;16.60;99.90
27376;DHT22;14844;51.302;6.354;2023-07-31T03:00:30;16.60;99.90
27376;DHT22;14844;51.302;6.354;2023-07-31T03:02:55;16.60;99.90
27376;DHT22;14844;51.302;6.354;2023-07-31T03:05:21;16.60;99.90
27376;DHT22;14844;51.302;6.354;2023-07-31T03:07:46;16.60;99.90
27376;DHT22;14844;51.302;6.354;2023-07-31T03:10:12;16.70;99.90
27376;DHT22;14844;51.302;6.354;2023-07-31T03:12:37;16.70;99.90
27376;DHT22;14844;51.302;6.354;2023-07-31T03:15:03;16.70;99.90
27376;DHT22;14844;51.302;6.354;2023-07-31T03:17:28;16.70;99.90
27376;DHT22;14844;51.302;6.354;2023-07-31T03:19:54;16.80;99.90
27376;DHT22;14844;51.302;6.354;2023-07-31T03:22:19;16.70;99.90
27376;DHT22;14844;51.302;6.354;2023-07-31T03:24:45;16.80;99.90
27376;DHT22;14844;51.302;6.354;2023-07-31T03:27:10;16.80;99.90
27376;DHT22;14844;51.302;6.354;2023-07-31T03:29:35;16.80;99.90
27376;DHT22;14844;51.302;6.354;2023-07-31T03:32:01;16.80;99.90
27376;DHT22;14844;51.302;6.354;2023-07-31T03:34:26;16.90;99.90
27376;DHT22;14844;51.302;6.354;2023-07-31T03:36:52;16.90;99.90
27376;DHT22;14844;51.302;6.354;2023-07-31T03:39:18;16.90;99.90
27376;DHT22;14844;51.302;6.354;2023-07-31T03:41:43;16.90;99.90
27376;DHT22;14844;51.302;6.354;2023-07-31T03:44:09;17.00;99.90
27376;DHT22;14844;51.302;6.354;2023-07-31T03:46:34;16.90;99.90
27376;DHT22;14844;51.302;6.354;2023-07-31T03:49:01;17.00;99.90
27376;DHT22;14844;51.302;6.354;2023-07-31T03:51:26;17.00;99.90
27376;DHT22;14844;51.302;6.354;2023-07-31T03:53:52;17.00;99.90
27376;DHT22;14844;51.302;6.354;2023-07-31T03:56:17;16.90;99.90
27376;DHT22;14844;51.302;6.354;2023-07-31T03:58:43;17.00;99.90
27376;DHT22;14844;51.302;6.354;2023-07-31T04:01:08;16.90;99.90
27376;DHT22;14844;51.302;6.354;2023-07-31T04:03:34;16.90;99.90
27376;DHT22;14844;51.302;6.354;2023-07-31T04:05:59;16.90;99.90
27376;DHT22;14844;51.302;6.354;2023-07-31T04:08:24;16.90;99.90
27376;DHT22;14844;51.302;6.354;2023-07-31T04:10:50;17.00;99.90
27376;DHT22;14844;51.302;6.354;2023-07-31T04:13:15;17.00;99.90
27376;DHT22;14844;51.302;6.354;2023-07-31T04:15:41;16.90;99.90
27376;DHT22;14844;51.302;6.354;2023-07-31T04:18:07;17.00;99.90
27376;DHT22;14844;51.302;6.354;2023-07-31T04:20:32;17.00;99.90
27376;DHT22;14844;51.302;6.354;2023-07-31T04:22:58;17.00;99.90
27376;DHT22;14844;51.302;6.354;2023-07-31T04:25:23;17.10;99.90
27376;DHT22;14844;51.302;6.354;2023-07-31T04:27:49;17.10;99.90
27376;DHT22;14844;51.302;6.354;2023-07-31T04:30:14;17.10;99.90
27376;DHT22;14844;51.302;6.354;2023-07-31T04:32:40;17.20;99.90
27376;DHT22;14844;51.302;6.354;2023-07-31T04:35:05;17.20;99.90
27376;DHT22;14844;51.302;6.354;2023-07-31T04:37:31;17.20;99.90
27376;DHT22;14844;51.302;6.354;2023-07-31T04:39:56;17.30;99.90
27376;DHT22;14844;51.302;6.354;2023-07-31T04:42:22;17.30;99.90
27376;DHT22;14844;51.302;6.354;2023-07-31T04:44:47;17.30;99.90
27376;DHT22;14844;51.302;6.354;2023-07-31T04:47:13;17.30;99.90
27376;DHT22;14844;51.302;6.354;2023-07-31T04:49:38;17.40;99.90
27376;DHT22;14844;51.302;6.354;2023-07-31T04:52:04;17.50;99.90
27376;DHT22;14844;51.302;6.354;2023-07-31T04:54:29;17.50;99.90
27376;DHT22;14844;51.302;6.354;2023-07-31T04:56:55;17.50;99.90
27376;DHT22;14844;51.302;6.354;2023-07-31T04:59:20;17.60;99.90
27376;DHT22;14844;51.302;6.354;2023-07-31T05:01:46;17.60;99.90
27376;DHT22;14844;51.302;6.354;2023-07-31T05:04:14;17.60;99.90
27376;DHT22;14844;51.302;6.354;2023-07-31T05:06:40;17.60;99.90
27376;DHT22;14844;51.302;6.354;2023-07-31T05:09:05;17.60;99.90
27376;DHT22;14844;51.302;6.354;2023-07-31T05:11:31;17.60;99.90
27376;DHT22;14844;51.302;6.354;2023-07-31T05:13:56;17.60;99.90
27376;DHT22;14844;51.302;6.354;2023-07-31T05:16:22;17.60;99.90
27376;DHT22;14844;51.302;6.354;2023-07-31T05:18:47;17.60;99.90
27376;DHT22;14844;51.302;6.354;2023-07-31T05:21:13;17.70;99.90
27376;DHT22;14844;51.302;6.354;2023-07-31T05:23:38;17.70;99.90
27376;DHT22;14844;51.302;6.354;2023-07-31T05:26:07;17.70;99.90
27376;DHT22;14844;51.302;6.354;2023-07-31T05:28:35;17.70;99.90
27376;DHT22;14844;51.302;6.354;2023-07-31T05:31:01;17.70;99.90
27376;DHT22;14844;51.302;6.354;2023-07-31T05:33:27;17.80;99.90
27376;DHT22;14844;51.302;6.354;2023-07-31T05:35:52;17.80;99.90
27376;DHT22;14844;51.302;6.354;2023-07-31T05:38:18;17.80;99.90
27376;DHT22;14844;51.302;6.354;2023-07-31T05:40:43;17.80;99.90
27376;DHT22;14844;51.302;6.354;2023-07-31T05:43:09;17.80;99.90
27376;DHT22;14844;51.302;6.354;2023-07-31T05:45:35;17.80;99.90
27376;DHT22;14844;51.302;6.354;2023-07-31T05:48:00;17.80;99.90
27376;DHT22;14844;51.302;6.354;2023-07-31T05:50:26;17.70;99.90
27376;DHT22;14844;51.302;6.354;2023-07-31T05:52:51;17.70;99.90
27376;DHT22;14844;51.302;6.354;2023-07-31T05:55:17;17.60;99.90
27376;DHT22;14844;51.302;6.354;2023-07-31T05:57:42;17.50;99.90
27376;DHT22;14844;51.302;6.354;2023-07-31T06:00:08;17.30;99.90
27376;DHT22;14844;51.302;6.354;2023-07-31T06:02:34;17.20;99.90
27376;DHT22;14844;51.302;6.354;2023-07-31T06:05:02;17.20;99.90
27376;DHT22;14844;51.302;6.354;2023-07-31T06:07:29;17.00;99.90
27376;DHT22;14844;51.302;6.354;2023-07-31T06:09:54;17.00;99.90
27376;DHT22;14844;51.302;6.354;2023-07-31T06:12:20;17.00;99.90
27376;DHT22;14844;51.302;6.354;2023-07-31T06:14:46;17.00;99.90
27376;DHT22;14844;51.302;6.354;2023-07-31T06:17:11;17.00;99.90
27376;DHT22;14844;51.302;6.354;2023-07-31T06:19:37;16.90;99.90
27376;DHT22;14844;51.302;6.354;2023-07-31T06:22:02;16.90;99.90
27376;DHT22;14844;51.302;6.354;2023-07-31T06:24:28;16.90;99.90
27376;DHT22;14844;51.302;6.354;2023-07-31T06:26:53;16.90;99.90
27376;DHT22;14844;51.302;6.354;2023-07-31T06:29:19;17.00;99.90
27376;DHT22;14844;51.302;6.354;2023-07-31T06:31:44;17.00;99.90
27376;DHT22;14844;51.302;6.354;2023-07-31T06:34:10;17.10;99.90
27376;DHT22;14844;51.302;6.354;2023-07-31T06:36:35;17.20;99.90
27376;DHT22;14844;51.302;6.354;2023-07-31T06:39:01;17.20;99.90
27376;DHT22;14844;51.302;6.354;2023-07-31T06:41:26;17.20;99.90
27376;DHT22;14844;51.302;6.354;2023-07-31T06:43:52;17.20;99.90
27376;DHT22;14844;51.302;6.354;2023-07-31T06:46:17;17.20;99.90
27376;DHT22;14844;51.302;6.354;2023-07-31T06:48:42;17.10;99.90
27376;DHT22;14844;51.302;6.354;2023-07-31T06:51:08;17.10;99.90
27376;DHT22;14844;51.302;6.354;2023-07-31T06:53:33;16.90;99.90
27376;DHT22;14844;51.302;6.354;2023-07-31T06:55:59;16.90;99.90
27376;DHT22;14844;51.302;6.354;2023-07-31T06:58:24;16.80;99.90
27376;DHT22;14844;51.302;6.354;2023-07-31T07:00:50;16.70;99.90
27376;DHT22;14844;51.302;6.354;2023-07-31T07:03:17;16.60;99.90
27376;DHT22;14844;51.302;6.354;2023-07-31T07:05:43;16.60;99.90
27376;DHT22;14844;51.302;6.354;2023-07-31T07:08:09;16.50;99.90
27376;DHT22;14844;51.302;6.354;2023-07-31T07:10:34;16.50;99.90
27376;DHT22;14844;51.302;6.354;2023-07-31T07:12:59;16.50;99.90
27376;DHT22;14844;51.302;6.354;2023-07-31T07:15:25;16.50;99.90
27376;DHT22;14844;51.302;6.354;2023-07-31T07:17:50;16.40;99.90
27376;DHT22;14844;51.302;6.354;2023-07-31T07:20:16;16.50;99.90
27376;DHT22;14844;51.302;6.354;2023-07-31T07:22:41;16.40;99.90
27376;DHT22;14844;51.302;6.354;2023-07-31T07:25:08;16.50;99.90
27376;DHT22;14844;51.302;6.354;2023-07-31T07:27:34;16.50;99.90
27376;DHT22;14844;51.302;6.354;2023-07-31T07:29:59;16.50;99.90
27376;DHT22;14844;51.302;6.354;2023-07-31T07:32:25;16.50;99.90
27376;DHT22;14844;51.302;6.354;2023-07-31T07:34:50;16.40;99.90
27376;DHT22;14844;51.302;6.354;2023-07-31T07:37:16;16.40;99.90
27376;DHT22;14844;51.302;6.354;2023-07-31T07:39:41;16.50;99.90
27376;DHT22;14844;51.302;6.354;2023-07-31T07:42:07;16.50;99.90
27376;DHT22;14844;51.302;6.354;2023-07-31T07:44:32;16.50;99.90
27376;DHT22;14844;51.302;6.354;2023-07-31T07:46:58;16.60;99.90
27376;DHT22;14844;51.302;6.354;2023-07-31T07:49:23;16.60;99.90
27376;DHT22;14844;51.302;6.354;2023-07-31T07:51:49;16.70;99.90
27376;DHT22;14844;51.302;6.354;2023-07-31T07:54:14;16.80;99.90
27376;DHT22;14844;51.302;6.354;2023-07-31T07:56:42;16.90;99.90
27376;DHT22;14844;51.302;6.354;2023-07-31T07:59:07;17.10;99.90
27376;DHT22;14844;51.302;6.354;2023-07-31T08:01:33;17.30;99.90
27376;DHT22;14844;51.302;6.354;2023-07-31T08:03:58;17.40;99.90
27376;DHT22;14844;51.302;6.354;2023-07-31T08:06:24;17.30;99.90
27376;DHT22;14844;51.302;6.354;2023-07-31T08:08:49;17.20;99.90
27376;DHT22;14844;51.302;6.354;2023-07-31T08:11:15;17.20;99.90
27376;DHT22;14844;51.302;6.354;2023-07-31T08:13:40;17.30;99.90
27376;DHT22;14844;51.302;6.354;2023-07-31T08:16:06;17.40;99.90
27376;DHT22;14844;51.302;6.354;2023-07-31T08:18:31;17.60;99.90
27376;DHT22;14844;51.302;6.354;2023-07-31T08:20:57;17.60;99.90
27376;DHT22;14844;51.302;6.354;2023-07-31T08:23:23;17.70;99.90
27376;DHT22;14844;51.302;6.354;2023-07-31T08:25:48;17.70;99.90
27376;DHT22;14844;51.302;6.354;2023-07-31T08:28:16;17.70;99.90
27376;DHT22;14844;51.302;6.354;2023-07-31T08:30:41;17.90;99.90
27376;DHT22;14844;51.302;6.354;2023-07-31T08:33:07;17.90;99.90
27376;DHT22;14844;51.302;6.354;2023-07-31T08:35:32;18.00;99.90
27376;DHT22;14844;51.302;6.354;2023-07-31T08:37:58;18.10;99.90
27376;DHT22;14844;51.302;6.354;2023-07-31T08:40:23;18.10;99.90
27376;DHT22;14844;51.302;6.354;2023-07-31T08:42:52;18.00;99.90
27376;DHT22;14844;51.302;6.354;2023-07-31T08:45:18;17.90;99.90
27376;DHT22;14844;51.302;6.354;2023-07-31T08:47:47;17.80;99.90
27376;DHT22;14844;51.302;6.354;2023-07-31T08:50:14;17.70;99.90
27376;DHT22;14844;51.302;6.354;2023-07-31T08:52:40;17.60;99.90
27376;DHT22;14844;51.302;6.354;2023-07-31T08:55:06;17.70;99.90
27376;DHT22;14844;51.302;6.354;2023-07-31T08:57:31;17.80;99.90
27376;DHT22;14844;51.302;6.354;2023-07-31T08:59:59;17.80;99.90
27376;DHT22;14844;51.302;6.354;2023-07-31T09:02:25;17.70;99.90
27376;DHT22;14844;51.302;6.354;2023-07-31T09:04:53;17.70;99.90
27376;DHT22;14844;51.302;6.354;2023-07-31T09:07:19;17.70;99.90
27376;DHT22;14844;51.302;6.354;2023-07-31T09:09:45;17.70;99.90
27376;DHT22;14844;51.302;6.354;2023-07-31T09:12:11;17.70;99.90
27376;DHT22;14844;51.302;6.354;2023-07-31T09:14:37;17.70;99.90
27376;DHT22;14844;51.302;6.354;2023-07-31T09:17:03;17.70;99.90
27376;DHT22;14844;51.302;6.354;2023-07-31T09:19:33;17.60;99.90
27376;DHT22;14844;51.302;6.354;2023-07-31T09:21:59;17.50;99.90
27376;DHT22;14844;51.302;6.354;2023-07-31T09:24:26;17.40;99.90
27376;DHT22;14844;51.302;6.354;2023-07-31T09:26:53;17.40;99.90
27376;DHT22;14844;51.302;6.354;2023-07-31T09:29:19;17.30;99.90
27376;DHT22;14844;51.302;6.354;2023-07-31T09:31:45;17.30;99.90
27376;DHT22;14844;51.302;6.354;2023-07-31T09:34:10;17.30;99.90
27376;DHT22;14844;51.302;6.354;2023-07-31T09:36:39;17.30;99.90
27376;DHT22;14844;51.302;6.354;2023-07-31T09:39:05;17.30;99.90
27376;DHT22;14844;51.302;6.354;2023-07-31T09:41:36;17.30;99.90
27376;DHT22;14844;51.302;6.354;2023-07-31T09:44:01;17.30;99.90
27376;DHT22;14844;51.302;6.354;2023-07-31T09:46:26;17.30;99.90
27376;DHT22;14844;51.302;6.354;2023-07-31T09:48:52;17.40;99.90
27376;DHT22;14844;51.302;6.354;2023-07-31T09:51:25;17.50;99.90
27376;DHT22;14844;51.302;6.354;2023-07-31T09:53:51;17.50;99.90
27376;DHT22;14844;51.302;6.354;2023-07-31T09:56:16;17.50;99.90
27376;DHT22;14844;51.302;6.354;2023-07-31T09:58:43;17.70;99.90
27376;DHT22;14844;51.302;6.354;2023-07-31T10:01:09;17.80;99.90
27376;DHT22;14844;51.302;6.354;2023-07-31T10:03:34;17.80;99.90
27376;DHT22;14844;51.302;6.354;2023-07-31T10:06:00;17.90;99.90
27376;DHT22;14844;51.302;6.354;2023-07-31T10:08:28;18.10;99.90
27376;DHT22;14844;51.302;6.354;2023-07-31T10:10:55;18.20;99.90
27376;DHT22;14844;51.302;6.354;2023-07-31T10:13:23;18.30;99.90
27376;DHT22;14844;51.302;6.354;2023-07-31T10:15:49;18.60;99.90
27376;DHT22;14844;51.302;6.354;2023-07-31T10:18:15;18.80;99.90
27376;DHT22;14844;51.302;6.354;2023-07-31T10:20:41;19.00;99.90
27376;DHT22;14844;51.302;6.354;2023-07-31T10:23:07;19.20;99.90
27376;DHT22;14844;51.302;6.354;2023-07-31T10:25:33;19.30;99.90
27376;DHT22;14844;51.302;6.354;2023-07-31T10:27:59;19.40;99.90
27376;DHT22;14844;51.302;6.354;2023-07-31T10:30:25;19.50;99.90
27376;DHT22;14844;51.302;6.354;2023-07-31T10:32:52;19.50;99.90
27376;DHT22;14844;51.302;6.354;2023-07-31T10:35:18;19.50;99.90
27376;DHT22;14844;51.302;6.354;2023-07-31T10:37:43;19.50;99.90
27376;DHT22;14844;51.302;6.354;2023-07-31T10:40:10;19.60;99.90
27376;DHT22;14844;51.302;6.354;2023-07-31T10:42:36;19.50;99.90
27376;DHT22;14844;51.302;6.354;2023-07-31T10:45:03;19.40;99.90
27376;DHT22;14844;51.302;6.354;2023-07-31T10:47:29;19.30;99.90
27376;DHT22;14844;51.302;6.354;2023-07-31T10:50:10;19.30;99.90
27376;DHT22;14844;51.302;6.354;2023-07-31T10:52:36;19.40;99.90
27376;DHT22;14844;51.302;6.354;2023-07-31T10:58:09;19.40;99.90
27376;DHT22;14844;51.302;6.354;2023-07-31T11:00:44;19.30;99.90
27376;DHT22;14844;51.302;6.354;2023-07-31T11:03:13;19.20;99.90
27376;DHT22;14844;51.302;6.354;2023-07-31T11:08:24;19.00;99.90
27376;DHT22;14844;51.302;6.354;2023-07-31T11:13:31;19.00;99.90
27376;DHT22;14844;51.302;6.354;2023-07-31T11:15:57;19.00;99.90
27376;DHT22;14844;51.302;6.354;2023-07-31T11:18:23;18.90;99.90
27376;DHT22;14844;51.302;6.354;2023-07-31T11:20:48;18.90;99.90
27376;DHT22;14844;51.302;6.354;2023-07-31T11:23:15;19.00;99.90
27376;DHT22;14844;51.302;6.354;2023-07-31T11:25:41;19.00;99.90
27376;DHT22;14844;51.302;6.354;2023-07-31T11:28:11;19.00;99.90
27376;DHT22;14844;51.302;6.354;2023-07-31T11:30:37;18.90;99.90
27376;DHT22;14844;51.302;6.354;2023-07-31T11:33:03;19.10;99.90
27376;DHT22;14844;51.302;6.354;2023-07-31T11:35:32;19.20;99.90
27376;DHT22;14844;51.302;6.354;2023-07-31T11:37:58;19.20;99.90
27376;DHT22;14844;51.302;6.354;2023-07-31T11:40:23;19.20;99.90
27376;DHT22;14844;51.302;6.354;2023-07-31T11:42:54;19.30;99.90
27376;DHT22;14844;51.302;6.354;2023-07-31T11:45:20;19.30;99.90
27376;DHT22;14844;51.302;6.354;2023-07-31T11:47:45;19.10;99.90
27376;DHT22;14844;51.302;6.354;2023-07-31T11:50:11;19.10;99.90
27376;DHT22;14844;51.302;6.354;2023-07-31T11:52:40;19.20;99.90
27376;DHT22;14844;51.302;6.354;2023-07-31T11:55:07;19.20;99.90
27376;DHT22;14844;51.302;6.354;2023-07-31T11:57:35;19.30;99.90
27376;DHT22;14844;51.302;6.354;2023-07-31T12:00:01;19.30;99.90
27376;DHT22;14844;51.302;6.354;2023-07-31T12:02:26;19.30;99.90
27376;DHT22;14844;51.302;6.354;2023-07-31T12:04:52;19.30;99.90
27376;DHT22;14844;51.302;6.354;2023-07-31T12:07:17;19.30;99.90
27376;DHT22;14844;51.302;6.354;2023-07-31T12:09:55;19.30;99.90
27376;DHT22;14844;51.302;6.354;2023-07-31T12:12:21;19.40;99.90
27376;DHT22;14844;51.302;6.354;2023-07-31T12:14:47;19.50;99.90
27376;DHT22;14844;51.302;6.354;2023-07-31T12:17:12;19.50;99.90
27376;DHT22;14844;51.302;6.354;2023-07-31T12:19:39;19.40;99.90
27376;DHT22;14844;51.302;6.354;2023-07-31T12:22:11;19.30;99.90
27376;DHT22;14844;51.302;6.354;2023-07-31T12:24:37;19.30;99.90
27376;DHT22;14844;51.302;6.354;2023-07-31T12:27:14;19.40;99.90
27376;DHT22;14844;51.302;6.354;2023-07-31T12:29:41;19.60;99.90
27376;DHT22;14844;51.302;6.354;2023-07-31T12:32:20;19.60;99.90
27376;DHT22;14844;51.302;6.354;2023-07-31T12:34:46;19.70;99.90
27376;DHT22;14844;51.302;6.354;2023-07-31T12:37:11;19.90;99.90
27376;DHT22;14844;51.302;6.354;2023-07-31T12:39:37;20.10;99.90
27376;DHT22;14844;51.302;6.354;2023-07-31T12:42:02;20.40;99.90
27376;DHT22;14844;51.302;6.354;2023-07-31T12:44:28;20.60;99.90
27376;DHT22;14844;51.302;6.354;2023-07-31T12:46:53;21.00;99.90
27376;DHT22;14844;51.302;6.354;2023-07-31T12:49:19;21.20;99.90
27376;DHT22;14844;51.302;6.354;2023-07-31T12:51:44;21.10;99.90
27376;DHT22;14844;51.302;6.354;2023-07-31T12:54:10;21.10;99.90
27376;DHT22;14844;51.302;6.354;2023-07-31T12:56:35;20.80;99.90
27376;DHT22;14844;51.302;6.354;2023-07-31T12:59:01;20.90;99.90
27376;DHT22;14844;51.302;6.354;2023-07-31T13:01:26;20.70;99.90
27376;DHT22;14844;51.302;6.354;2023-07-31T13:03:52;20.70;99.90
27376;DHT22;14844;51.302;6.354;2023-07-31T13:06:17;20.80;99.90
27376;DHT22;14844;51.302;6.354;2023-07-31T13:08:43;20.80;99.90
27376;DHT22;14844;51.302;6.354;2023-07-31T13:11:08;20.80;99.90
27376;DHT22;14844;51.302;6.354;2023-07-31T13:13:34;21.00;99.90
27376;DHT22;14844;51.302;6.354;2023-07-31T13:16:00;21.10;99.90
27376;DHT22;14844;51.302;6.354;2023-07-31T13:18:25;21.00;99.90
27376;DHT22;14844;51.302;6.354;2023-07-31T13:20:51;21.00;99.90
27376;DHT22;14844;51.302;6.354;2023-07-31T13:23:16;20.90;99.90
27376;DHT22;14844;51.302;6.354;2023-07-31T13:25:41;21.00;99.90
27376;DHT22;14844;51.302;6.354;2023-07-31T13:28:07;21.00;99.90
27376;DHT22;14844;51.302;6.354;2023-07-31T13:30:32;20.90;99.90
27376;DHT22;14844;51.302;6.354;2023-07-31T13:32:58;20.80;99.90
27376;DHT22;14844;51.302;6.354;2023-07-31T13:35:23;20.80;99.90
27376;DHT22;14844;51.302;6.354;2023-07-31T13:37:49;20.80;99.90
27376;DHT22;14844;51.302;6.354;2023-07-31T13:40:14;20.80;99.90
27376;DHT22;14844;51.302;6.354;2023-07-31T13:42:40;20.90;99.90
27376;DHT22;14844;51.302;6.354;2023-07-31T13:45:05;20.80;99.90
27376;DHT22;14844;51.302;6.354;2023-07-31T13:47:31;20.70;99.90
27376;DHT22;14844;51.302;6.354;2023-07-31T13:49:57;20.50;99.90
27376;DHT22;14844;51.302;6.354;2023-07-31T13:52:22;20.30;99.90
27376;DHT22;14844;51.302;6.354;2023-07-31T13:54:48;20.30;99.90
27376;DHT22;14844;51.302;6.354;2023-07-31T13:57:13;20.20;99.90
27376;DHT22;14844;51.302;6.354;2023-07-31T13:59:39;20.20;99.90
27376;DHT22;14844;51.302;6.354;2023-07-31T14:02:04;20.10;99.90
27376;DHT22;14844;51.302;6.354;2023-07-31T14:04:30;20.10;99.90
27376;DHT22;14844;51.302;6.354;2023-07-31T14:06:55;20.10;99.90
27376;DHT22;14844;51.302;6.354;2023-07-31T14:09:21;20.10;99.90
27376;DHT22;14844;51.302;6.354;2023-07-31T14:11:47;20.10;99.90
27376;DHT22;14844;51.302;6.354;2023-07-31T14:14:12;20.10;99.90
27376;DHT22;14844;51.302;6.354;2023-07-31T14:16:39;20.10;99.90
27376;DHT22;14844;51.302;6.354;2023-07-31T14:19:04;20.20;99.90
27376;DHT22;14844;51.302;6.354;2023-07-31T14:21:30;20.40;99.90
27376;DHT22;14844;51.302;6.354;2023-07-31T14:23:55;20.40;99.90
27376;DHT22;14844;51.302;6.354;2023-07-31T14:26:21;20.50;99.90
27376;DHT22;14844;51.302;6.354;2023-07-31T14:28:46;20.60;99.90
27376;DHT22;14844;51.302;6.354;2023-07-31T14:31:12;20.70;99.90
27376;DHT22;14844;51.302;6.354;2023-07-31T14:33:37;20.70;99.90
27376;DHT22;14844;51.302;6.354;2023-07-31T14:36:03;20.60;99.90
27376;DHT22;14844;51.302;6.354;2023-07-31T14:38:28;20.60;99.90
27376;DHT22;14844;51.302;6.354;2023-07-31T14:40:54;20.50;99.90
27376;DHT22;14844;51.302;6.354;2023-07-31T14:43:19;20.40;99.90
27376;DHT22;14844;51.302;6.354;2023-07-31T14:45:45;20.30;99.90
27376;DHT22;14844;51.302;6.354;2023-07-31T14:48:11;20.10;99.90
27376;DHT22;14844;51.302;6.354;2023-07-31T14:50:37;20.10;99.90
27376;DHT22;14844;51.302;6.354;2023-07-31T14:53:02;20.00;99.90
27376;DHT22;14844;51.302;6.354;2023-07-31T14:55:28;20.00;99.90
27376;DHT22;14844;51.302;6.354;2023-07-31T14:57:53;20.10;99.90
27376;DHT22;14844;51.302;6.354;2023-07-31T15:00:19;20.10;99.90
27376;DHT22;14844;51.302;6.354;2023-07-31T15:02:45;20.10;99.90
27376;DHT22;14844;51.302;6.354;2023-07-31T15:05:10;20.10;99.90
27376;DHT22;14844;51.302;6.354;2023-07-31T15:07:36;20.10;99.90
27376;DHT22;14844;51.302;6.354;2023-07-31T15:10:01;20.10;99.90
27376;DHT22;14844;51.302;6.354;2023-07-31T15:12:27;20.00;99.90
27376;DHT22;14844;51.302;6.354;2023-07-31T15:14:53;20.00;99.90
27376;DHT22;14844;51.302;6.354;2023-07-31T15:17:19;20.00;99.90
27376;DHT22;14844;51.302;6.354;2023-07-31T15:19:44;19.80;99.90
27376;DHT22;14844;51.302;6.354;2023-07-31T15:22:10;19.40;99.90
27376;DHT22;14844;51.302;6.354;2023-07-31T15:24:35;19.20;99.90
27376;DHT22;14844;51.302;6.354;2023-07-31T15:27:00;18.90;99.90
27376;DHT22;14844;51.302;6.354;2023-07-31T15:29:28;18.90;99.90
27376;DHT22;14844;51.302;6.354;2023-07-31T15:31:53;18.70;99.90
27376;DHT22;14844;51.302;6.354;2023-07-31T15:34:19;18.60;99.90